sensor_id;sensor_type;location;lat;lon;timestamp;pressure;altitude;pressure_sealevel;temperature;humidity
76132;BME280;64877;50.994;13.650;2024-02-15T00:01:04;99924.50;;;10.35;100.00
76132;BME280;64877;50.994;13.650;2024-02-15T00:03:31;99921.78;;;10.35;100.00
76132;BME280;64877;50.994;13.650;2024-02-15T00:06:00;99931.81;;;10.33;100.00
76132;BME280;64877;50.994;13.650;2024-02-15T00:08:26;99923.25;;;10.39;100.00
76132;BME280;64877;50.994;13.650;2024-02-15T00:10:52;99930.09;;;10.32;100.00
76132;BME280;64877;50.994;13.650;2024-02-15T00:13:19;99930.75;;;10.35;100.00
76132;BME280;64877;50.994;13.650;2024-02-15T00:15:44;99923.72;;;10.33;100.00
76132;BME280;64877;50.994;13.650;2024-02-15T00:18:13;99924.50;;;10.35;100.00
76132;BME280;64877;50.994;13.650;2024-02-15T00:20:39;99933.31;;;10.37;100.00
76132;BME280;64877;50.994;13.650;2024-02-15T00:23:05;99929.56;;;10.40;100.00
76132;BME280;64877;50.994;13.650;2024-02-15T00:25:32;99928.56;;;10.41;100.00
76132;BME280;64877;50.994;13.650;2024-02-15T00:27:58;99935.56;;;10.43;100.00
76132;BME280;64877;50.994;13.650;2024-02-15T00:30:26;99929.09;;;10.46;100.00
76132;BME280;64877;50.994;13.650;2024-02-15T00:32:52;99929.22;;;10.44;100.00
76132;BME280;64877;50.994;13.650;2024-02-15T00:35:18;99928.56;;;10.41;100.00
76132;BME280;64877;50.994;13.650;2024-02-15T00:37:44;99920.16;;;10.45;100.00
76132;BME280;64877;50.994;13.650;2024-02-15T00:40:10;99921.88;;;10.46;100.00
76132;BME280;64877;50.994;13.650;2024-02-15T00:42:36;99923.38;;;10.50;100.00
76132;BME280;64877;50.994;13.650;2024-02-15T00:45:03;99930.50;;;10.51;100.00
76132;BME280;64877;50.994;13.650;2024-02-15T00:47:28;99920.22;;;10.56;100.00
76132;BME280;64877;50.994;13.650;2024-02-15T00:49:54;99920.44;;;10.53;100.00
76132;BME280;64877;50.994;13.650;2024-02-15T00:52:19;99918.94;;;10.49;100.00
76132;BME280;64877;50.994;13.650;2024-02-15T00:54:45;99925.09;;;10.51;100.00
76132;BME280;64877;50.994;13.650;2024-02-15T00:57:12;99914.28;;;10.51;100.00
76132;BME280;64877;50.994;13.650;2024-02-15T00:59:37;99918.59;;;10.54;100.00
76132;BME280;64877;50.994;13.650;2024-02-15T01:02:03;99915.47;;;10.60;100.00
76132;BME280;64877;50.994;13.650;2024-02-15T01:04:29;99920.72;;;10.61;100.00
76132;BME280;64877;50.994;13.650;2024-02-15T01:06:55;99931.19;;;10.66;100.00
76132;BME280;64877;50.994;13.650;2024-02-15T01:09:21;99924.19;;;10.64;100.00
76132;BME280;64877;50.994;13.650;2024-02-15T01:11:47;99931.31;;;10.65;100.00
76132;BME280;64877;50.994;13.650;2024-02-15T01:14:13;99930.34;;;10.66;100.00
76132;BME280;64877;50.994;13.650;2024-02-15T01:16:38;99930.88;;;10.71;100.00
76132;BME280;64877;50.994;13.650;2024-02-15T01:19:04;99930.09;;;10.69;100.00
76132;BME280;64877;50.994;13.650;2024-02-15T01:21:30;99933.44;;;10.72;100.00
76132;BME280;64877;50.994;13.650;2024-02-15T01:23:58;99923.75;;;10.70;100.00
76132;BME280;64877;50.994;13.650;2024-02-15T01:26:26;99922.00;;;10.69;100.00
76132;BME280;64877;50.994;13.650;2024-02-15T01:28:52;99923.75;;;10.70;100.00
76132;BME280;64877;50.994;13.650;2024-02-15T01:31:17;99927.91;;;10.74;100.00
76132;BME280;64877;50.994;13.650;2024-02-15T01:33:44;99922.44;;;10.75;100.00
76132;BME280;64877;50.994;13.650;2024-02-15T01:36:14;99926.00;;;10.76;100.00
76132;BME280;64877;50.994;13.650;2024-02-15T01:38:41;99919.59;;;10.77;100.00
76132;BME280;64877;50.994;13.650;2024-02-15T01:41:06;99913.97;;;10.80;100.00
76132;BME280;64877;50.994;13.650;2024-02-15T01:43:32;99916.91;;;10.77;100.00
76132;BME280;64877;50.994;13.650;2024-02-15T01:45:57;99914.41;;;10.74;100.00
76132;BME280;64877;50.994;13.650;2024-02-15T01:48:27;99915.19;;;10.76;100.00
76132;BME280;64877;50.994;13.650;2024-02-15T01:50:52;99916.69;;;10.80;100.00
76132;BME280;64877;50.994;13.650;2024-02-15T01:53:19;99911.16;;;10.81;100.00
76132;BME280;64877;50.994;13.650;2024-02-15T01:55:45;99909.53;;;10.79;100.00
76132;BME280;64877;50.994;13.650;2024-02-15T01:58:10;99912.13;;;10.80;100.00
76132;BME280;64877;50.994;13.650;2024-02-15T02:00:36;99909.66;;;10.77;100.00
76132;BME280;64877;50.994;13.650;2024-02-15T02:03:05;99906.75;;;10.80;100.00
76132;BME280;64877;50.994;13.650;2024-02-15T02:05:31;99897.66;;;10.81;100.00
76132;BME280;64877;50.994;13.650;2024-02-15T02:07:57;99897.13;;;10.76;100.00
76132;BME280;64877;50.994;13.650;2024-02-15T02:10:26;99890.63;;;10.79;100.00
76132;BME280;64877;50.994;13.650;2024-02-15T02:13:00;99896.66;;;10.82;100.00
76132;BME280;64877;50.994;13.650;2024-02-15T02:15:27;99898.03;;;10.88;100.00
76132;BME280;64877;50.994;13.650;2024-02-15T02:17:54;99892.59;;;10.77;100.00
76132;BME280;64877;50.994;13.650;2024-02-15T02:20:19;99897.53;;;10.83;100.00
76132;BME280;64877;50.994;13.650;2024-02-15T02:22:46;99898.84;;;10.77;100.00
76132;BME280;64877;50.994;13.650;2024-02-15T02:25:13;99902.94;;;10.83;100.00
76132;BME280;64877;50.994;13.650;2024-02-15T02:27:39;99903.44;;;10.88;100.00
76132;BME280;64877;50.994;13.650;2024-02-15T02:30:15;99899.66;;;10.91;100.00
76132;BME280;64877;50.994;13.650;2024-02-15T02:32:42;99900.06;;;10.97;100.00
76132;BME280;64877;50.994;13.650;2024-02-15T02:35:08;99898.34;;;10.96;100.00
76132;BME280;64877;50.994;13.650;2024-02-15T02:37:37;99906.56;;;10.95;100.00
76132;BME280;64877;50.994;13.650;2024-02-15T02:40:07;99901.50;;;10.90;100.00
76132;BME280;64877;50.994;13.650;2024-02-15T02:42:46;99899.66;;;10.91;100.00
76132;BME280;64877;50.994;13.650;2024-02-15T02:45:11;99903.75;;;10.96;100.00
76132;BME280;64877;50.994;13.650;2024-02-15T02:47:37;99901.78;;;10.98;100.00
76132;BME280;64877;50.994;13.650;2024-02-15T02:50:02;99905.81;;;10.93;100.00
76132;BME280;64877;50.994;13.650;2024-02-15T02:52:28;99904.47;;;10.98;100.00
76132;BME280;64877;50.994;13.650;2024-02-15T02:54:53;99901.78;;;10.98;100.00
76132;BME280;64877;50.994;13.650;2024-02-15T02:57:19;99902.53;;;11.00;100.00
76132;BME280;64877;50.994;13.650;2024-02-15T02:59:44;99892.28;;;10.93;100.00
76132;BME280;64877;50.994;13.650;2024-02-15T03:02:10;99900.06;;;10.97;100.00
76132;BME280;64877;50.994;13.650;2024-02-15T03:04:35;99898.13;;;10.99;100.00
76132;BME280;64877;50.994;13.650;2024-02-15T03:07:01;99901.03;;;10.96;100.00
76132;BME280;64877;50.994;13.650;2024-02-15T03:09:26;99908.16;;;10.97;100.00
76132;BME280;64877;50.994;13.650;2024-02-15T03:11:54;99900.31;;;10.94;100.00
76132;BME280;64877;50.994;13.650;2024-02-15T03:14:20;99899.06;;;10.98;100.00
76132;BME280;64877;50.994;13.650;2024-02-15T03:16:45;99900.53;;;10.91;100.00
76132;BME280;64877;50.994;13.650;2024-02-15T03:19:11;99894.00;;;10.94;100.00
76132;BME280;64877;50.994;13.650;2024-02-15T03:21:37;99888.72;;;10.92;100.00
76132;BME280;64877;50.994;13.650;2024-02-15T03:24:03;99890.34;;;10.95;100.00
76132;BME280;64877;50.994;13.650;2024-02-15T03:26:32;99892.19;;;10.94;100.00
76132;BME280;64877;50.994;13.650;2024-02-15T03:29:05;99894.66;;;10.97;100.00
76132;BME280;64877;50.994;13.650;2024-02-15T03:31:33;99897.00;;;11.02;100.00
76132;BME280;64877;50.994;13.650;2024-02-15T03:34:00;99895.94;;;11.04;100.00
76132;BME280;64877;50.994;13.650;2024-02-15T03:36:25;99891.78;;;11.11;100.00
76132;BME280;64877;50.994;13.650;2024-02-15T03:38:51;99889.78;;;11.13;100.00
76132;BME280;64877;50.994;13.650;2024-02-15T03:41:19;99885.63;;;11.09;100.00
76132;BME280;64877;50.994;13.650;2024-02-15T03:43:44;99893.97;;;11.06;100.00
76132;BME280;64877;50.994;13.650;2024-02-15T03:46:11;99892.00;;;11.08;100.00
76132;BME280;64877;50.994;13.650;2024-02-15T03:48:39;99893.59;;;11.11;100.00
76132;BME280;64877;50.994;13.650;2024-02-15T03:51:04;99901.59;;;11.12;100.00
76132;BME280;64877;50.994;13.650;2024-02-15T03:53:31;99903.09;;;11.17;100.00
76132;BME280;64877;50.994;13.650;2024-02-15T03:55:58;99900.16;;;11.20;100.00
76132;BME280;64877;50.994;13.650;2024-02-15T03:58:25;99900.16;;;11.20;100.00
76132;BME280;64877;50.994;13.650;2024-02-15T04:00:51;99893.66;;;11.22;100.00
76132;BME280;64877;50.994;13.650;2024-02-15T04:03:16;99896.97;;;11.26;100.00
76132;BME280;64877;50.994;13.650;2024-02-15T04:05:42;99901.41;;;11.27;100.00
76132;BME280;64877;50.994;13.650;2024-02-15T04:08:07;99896.47;;;11.21;100.00
76132;BME280;64877;50.994;13.650;2024-02-15T04:10:33;99902.91;;;11.31;100.00
76132;BME280;64877;50.994;13.650;2024-02-15T04:12:59;99894.78;;;11.31;100.00
76132;BME280;64877;50.994;13.650;2024-02-15T04:15:24;99906.59;;;11.30;100.00
76132;BME280;64877;50.994;13.650;2024-02-15T04:17:50;99907.44;;;11.30;100.00
76132;BME280;64877;50.994;13.650;2024-02-15T04:20:21;99900.94;;;11.33;100.00
76132;BME280;64877;50.994;13.650;2024-02-15T04:22:47;99907.97;;;11.35;100.00
76132;BME280;64877;50.994;13.650;2024-02-15T04:25:15;99910.53;;;11.37;100.00
76132;BME280;64877;50.994;13.650;2024-02-15T04:27:44;99906.84;;;11.38;100.00
76132;BME280;64877;50.994;13.650;2024-02-15T04:30:11;99905.63;;;11.42;100.00
76132;BME280;64877;50.994;13.650;2024-02-15T04:32:36;99902.06;;;11.42;100.00
76132;BME280;64877;50.994;13.650;2024-02-15T04:35:02;99907.13;;;11.46;100.00
76132;BME280;64877;50.994;13.650;2024-02-15T04:37:29;99907.97;;;11.47;100.00
76132;BME280;64877;50.994;13.650;2024-02-15T04:39:55;99908.13;;;11.45;100.00
76132;BME280;64877;50.994;13.650;2024-02-15T04:42:21;99903.78;;;11.43;100.00
76132;BME280;64877;50.994;13.650;2024-02-15T04:44:48;99904.41;;;11.46;100.00
76132;BME280;64877;50.994;13.650;2024-02-15T04:47:13;99902.72;;;11.45;100.00
76132;BME280;64877;50.994;13.650;2024-02-15T04:49:39;99908.97;;;11.46;100.00
76132;BME280;64877;50.994;13.650;2024-02-15T04:52:05;99909.97;;;11.45;100.00
76132;BME280;64877;50.994;13.650;2024-02-15T04:54:30;99912.06;;;11.52;100.00
76132;BME280;64877;50.994;13.650;2024-02-15T04:56:58;99909.59;;;11.49;100.00
76132;BME280;64877;50.994;13.650;2024-02-15T04:59:23;99917.22;;;11.55;100.00
76132;BME280;64877;50.994;13.650;2024-02-15T05:01:52;99916.03;;;11.59;100.00
76132;BME280;64877;50.994;13.650;2024-02-15T05:04:17;99913.06;;;11.62;100.00
76132;BME280;64877;50.994;13.650;2024-02-15T05:06:43;99914.41;;;11.57;100.00
76132;BME280;64877;50.994;13.650;2024-02-15T05:09:10;99917.47;;;11.52;100.00
76132;BME280;64877;50.994;13.650;2024-02-15T05:11:39;99913.31;;;11.59;100.00
76132;BME280;64877;50.994;13.650;2024-02-15T05:14:13;99913.31;;;11.59;100.00
76132;BME280;64877;50.994;13.650;2024-02-15T05:16:45;99912.69;;;11.56;100.00
76132;BME280;64877;50.994;13.650;2024-02-15T05:19:13;99907.28;;;11.56;100.00
76132;BME280;64877;50.994;13.650;2024-02-15T05:21:39;99921.78;;;11.55;100.00
76132;BME280;64877;50.994;13.650;2024-02-15T05:24:05;99921.44;;;11.59;100.00
76132;BME280;64877;50.994;13.650;2024-02-15T05:26:30;99917.09;;;11.57;100.00
76132;BME280;64877;50.994;13.650;2024-02-15T05:28:56;99922.16;;;11.61;100.00
76132;BME280;64877;50.994;13.650;2024-02-15T05:31:21;99919.59;;;11.60;100.00
76132;BME280;64877;50.994;13.650;2024-02-15T05:33:51;99920.19;;;11.63;100.00
76132;BME280;64877;50.994;13.650;2024-02-15T05:36:19;99917.75;;;11.60;100.00
76132;BME280;64877;50.994;13.650;2024-02-15T05:38:47;99918.81;;;11.58;100.00
76132;BME280;64877;50.994;13.650;2024-02-15T05:41:12;99924.38;;;11.56;100.00
76132;BME280;64877;50.994;13.650;2024-02-15T05:43:39;99919.31;;;11.63;100.00
76132;BME280;64877;50.994;13.650;2024-02-15T05:46:07;99927.78;;;11.58;100.00
76132;BME280;64877;50.994;13.650;2024-02-15T05:48:33;99923.84;;;11.51;100.00
76132;BME280;64877;50.994;13.650;2024-02-15T05:51:01;99923.72;;;11.53;100.00
76132;BME280;64877;50.994;13.650;2024-02-15T05:53:26;99922.00;;;11.52;100.00
76132;BME280;64877;50.994;13.650;2024-02-15T05:55:52;99916.84;;;11.49;100.00
76132;BME280;64877;50.994;13.650;2024-02-15T05:58:18;99929.41;;;11.50;100.00
76132;BME280;64877;50.994;13.650;2024-02-15T06:00:44;99929.78;;;11.56;100.00
76132;BME280;64877;50.994;13.650;2024-02-15T06:03:19;99938.13;;;11.53;100.00
76132;BME280;64877;50.994;13.650;2024-02-15T06:05:47;99935.41;;;11.53;100.00
76132;BME280;64877;50.994;13.650;2024-02-15T06:08:13;99939.22;;;11.51;100.00
76132;BME280;64877;50.994;13.650;2024-02-15T06:10:39;99937.53;;;11.61;100.00
76132;BME280;64877;50.994;13.650;2024-02-15T06:13:05;99946.38;;;11.63;100.00
76132;BME280;64877;50.994;13.650;2024-02-15T06:15:31;99948.13;;;11.64;100.00
76132;BME280;64877;50.994;13.650;2024-02-15T06:17:57;99944.31;;;11.67;100.00
76132;BME280;64877;50.994;13.650;2024-02-15T06:20:22;99947.25;;;11.63;100.00
76132;BME280;64877;50.994;13.650;2024-02-15T06:22:48;99953.41;;;11.65;100.00
76132;BME280;64877;50.994;13.650;2024-02-15T06:25:14;99955.91;;;11.69;100.00
76132;BME280;64877;50.994;13.650;2024-02-15T06:27:46;99964.25;;;11.77;100.00
76132;BME280;64877;50.994;13.650;2024-02-15T06:30:14;99954.66;;;11.73;100.00
76132;BME280;64877;50.994;13.650;2024-02-15T06:32:58;99958.22;;;11.73;100.00
76132;BME280;64877;50.994;13.650;2024-02-15T06:35:42;99974.44;;;11.73;100.00
76132;BME280;64877;50.994;13.650;2024-02-15T06:38:26;99963.63;;;11.73;100.00
76132;BME280;64877;50.994;13.650;2024-02-15T06:41:12;99968.19;;;11.73;100.00
76132;BME280;64877;50.994;13.650;2024-02-15T06:43:38;99973.38;;;11.76;100.00
76132;BME280;64877;50.994;13.650;2024-02-15T06:46:06;99968.69;;;11.78;100.00
76132;BME280;64877;50.994;13.650;2024-02-15T06:48:32;99964.03;;;11.80;100.00
76132;BME280;64877;50.994;13.650;2024-02-15T06:50:57;99958.63;;;11.80;100.00
76132;BME280;64877;50.994;13.650;2024-02-15T06:53:23;99966.50;;;11.83;100.00
76132;BME280;64877;50.994;13.650;2024-02-15T06:55:49;99969.22;;;11.83;100.00
76132;BME280;64877;50.994;13.650;2024-02-15T06:58:16;99971.38;;;11.78;100.00
76132;BME280;64877;50.994;13.650;2024-02-15T07:00:42;99967.50;;;11.82;100.00
76132;BME280;64877;50.994;13.650;2024-02-15T07:03:08;99966.84;;;11.78;100.00
76132;BME280;64877;50.994;13.650;2024-02-15T07:05:34;99963.56;;;11.86;100.00
76132;BME280;64877;50.994;13.650;2024-02-15T07:08:00;99962.50;;;11.88;100.00
76132;BME280;64877;50.994;13.650;2024-02-15T07:10:26;99971.81;;;11.84;100.00
76132;BME280;64877;50.994;13.650;2024-02-15T07:12:51;99960.75;;;11.87;100.00
76132;BME280;64877;50.994;13.650;2024-02-15T07:15:17;99962.59;;;11.87;100.00
76132;BME280;64877;50.994;13.650;2024-02-15T07:17:42;99962.59;;;11.98;100.00
76132;BME280;64877;50.994;13.650;2024-02-15T07:20:11;99957.94;;;12.00;100.00
76132;BME280;64877;50.994;13.650;2024-02-15T07:22:36;99959.66;;;12.12;100.00
76132;BME280;64877;50.994;13.650;2024-02-15T07:25:04;99954.66;;;12.19;100.00
76132;BME280;64877;50.994;13.650;2024-02-15T07:27:30;99949.09;;;12.32;100.00
76132;BME280;64877;50.994;13.650;2024-02-15T07:29:55;99951.72;;;12.33;100.00
76132;BME280;64877;50.994;13.650;2024-02-15T07:32:21;99949.09;;;12.43;100.00
76132;BME280;64877;50.994;13.650;2024-02-15T07:34:47;99963.25;;;12.69;100.00
76132;BME280;64877;50.994;13.650;2024-02-15T07:37:13;99957.69;;;12.82;100.00
76132;BME280;64877;50.994;13.650;2024-02-15T07:39:40;99960.38;;;12.93;100.00
76132;BME280;64877;50.994;13.650;2024-02-15T07:42:05;99956.03;;;13.02;100.00
76132;BME280;64877;50.994;13.650;2024-02-15T07:44:34;99953.47;;;13.00;100.00
76132;BME280;64877;50.994;13.650;2024-02-15T07:47:02;99961.91;;;13.18;100.00
76132;BME280;64877;50.994;13.650;2024-02-15T07:49:28;99964.94;;;13.36;99.39
76132;BME280;64877;50.994;13.650;2024-02-15T07:51:53;99972.31;;;13.45;98.46
76132;BME280;64877;50.994;13.650;2024-02-15T07:54:19;99965.44;;;13.41;97.04
76132;BME280;64877;50.994;13.650;2024-02-15T07:56:49;99967.81;;;13.34;97.30
76132;BME280;64877;50.994;13.650;2024-02-15T07:59:15;99974.03;;;13.46;96.43
76132;BME280;64877;50.994;13.650;2024-02-15T08:01:44;99958.97;;;13.53;95.88
76132;BME280;64877;50.994;13.650;2024-02-15T08:04:11;99964.41;;;13.53;95.87
76132;BME280;64877;50.994;13.650;2024-02-15T08:06:37;99961.56;;;13.55;95.94
76132;BME280;64877;50.994;13.650;2024-02-15T08:09:04;99964.13;;;13.77;96.26
76132;BME280;64877;50.994;13.650;2024-02-15T08:11:32;99964.31;;;14.06;94.12
76132;BME280;64877;50.994;13.650;2024-02-15T08:13:57;99956.19;;;14.27;92.43
76132;BME280;64877;50.994;13.650;2024-02-15T08:16:25;99957.38;;;14.44;90.38
76132;BME280;64877;50.994;13.650;2024-02-15T08:18:54;99950.66;;;14.38;90.20
76132;BME280;64877;50.994;13.650;2024-02-15T08:21:31;99947.59;;;14.32;90.09
76132;BME280;64877;50.994;13.650;2024-02-15T08:23:59;99943.31;;;14.29;89.90
76132;BME280;64877;50.994;13.650;2024-02-15T08:26:25;99940.34;;;14.42;89.83
76132;BME280;64877;50.994;13.650;2024-02-15T08:28:50;99939.22;;;14.44;89.74
76132;BME280;64877;50.994;13.650;2024-02-15T08:31:15;99933.00;;;14.54;88.97
76132;BME280;64877;50.994;13.650;2024-02-15T08:33:41;99934.19;;;14.70;88.06
76132;BME280;64877;50.994;13.650;2024-02-15T08:36:08;99932.78;;;14.86;86.72
76132;BME280;64877;50.994;13.650;2024-02-15T08:38:39;99942.00;;;15.04;85.69
76132;BME280;64877;50.994;13.650;2024-02-15T08:41:06;99946.47;;;15.34;83.43
76132;BME280;64877;50.994;13.650;2024-02-15T08:43:33;99935.47;;;15.65;81.95
76132;BME280;64877;50.994;13.650;2024-02-15T08:45:59;99939.44;;;15.90;80.42
76132;BME280;64877;50.994;13.650;2024-02-15T08:48:25;99933.25;;;16.07;78.67
76132;BME280;64877;50.994;13.650;2024-02-15T08:50:53;99942.13;;;16.09;78.82
76132;BME280;64877;50.994;13.650;2024-02-15T08:53:19;99949.41;;;16.18;77.00
76132;BME280;64877;50.994;13.650;2024-02-15T08:55:45;99943.69;;;16.21;77.37
76132;BME280;64877;50.994;13.650;2024-02-15T08:58:10;99947.84;;;16.06;78.39
76132;BME280;64877;50.994;13.650;2024-02-15T09:00:36;99951.50;;;15.77;78.75
76132;BME280;64877;50.994;13.650;2024-02-15T09:03:02;99944.03;;;15.80;79.02
76132;BME280;64877;50.994;13.650;2024-02-15T09:05:28;99951.91;;;15.54;78.80
76132;BME280;64877;50.994;13.650;2024-02-15T09:07:53;99952.94;;;15.52;79.56
76132;BME280;64877;50.994;13.650;2024-02-15T09:10:19;99959.22;;;15.43;80.27
76132;BME280;64877;50.994;13.650;2024-02-15T09:12:47;99951.75;;;15.36;80.83
76132;BME280;64877;50.994;13.650;2024-02-15T09:15:14;99954.03;;;15.31;81.30
76132;BME280;64877;50.994;13.650;2024-02-15T09:17:41;99955.50;;;15.35;80.51
76132;BME280;64877;50.994;13.650;2024-02-15T09:20:13;99960.34;;;15.31;80.54
76132;BME280;64877;50.994;13.650;2024-02-15T09:22:48;99955.34;;;15.27;80.57
76132;BME280;64877;50.994;13.650;2024-02-15T09:25:14;99951.59;;;15.08;81.06
76132;BME280;64877;50.994;13.650;2024-02-15T09:27:42;99952.75;;;15.15;80.98
76132;BME280;64877;50.994;13.650;2024-02-15T09:30:08;99954.19;;;15.19;80.86
76132;BME280;64877;50.994;13.650;2024-02-15T09:32:37;99957.75;;;15.20;80.79
76132;BME280;64877;50.994;13.650;2024-02-15T09:35:03;99950.03;;;15.25;80.43
76132;BME280;64877;50.994;13.650;2024-02-15T09:37:33;99956.06;;;15.19;80.66
76132;BME280;64877;50.994;13.650;2024-02-15T09:39:59;99953.50;;;15.46;79.27
76132;BME280;64877;50.994;13.650;2024-02-15T09:42:29;99949.94;;;15.65;77.92
76132;BME280;64877;50.994;13.650;2024-02-15T09:44:54;99954.41;;;15.66;77.74
76132;BME280;64877;50.994;13.650;2024-02-15T09:47:20;99959.22;;;15.53;78.96
76132;BME280;64877;50.994;13.650;2024-02-15T09:49:46;99964.38;;;15.56;78.74
76132;BME280;64877;50.994;13.650;2024-02-15T09:52:12;99972.41;;;15.48;79.65
76132;BME280;64877;50.994;13.650;2024-02-15T09:54:41;99966.22;;;15.46;79.76
76132;BME280;64877;50.994;13.650;2024-02-15T09:57:11;99967.09;;;15.56;78.00
76132;BME280;64877;50.994;13.650;2024-02-15T09:59:37;99965.09;;;15.58;77.57
76132;BME280;64877;50.994;13.650;2024-02-15T10:02:03;99972.41;;;15.48;79.01
76132;BME280;64877;50.994;13.650;2024-02-15T10:04:29;99971.53;;;15.38;79.93
76132;BME280;64877;50.994;13.650;2024-02-15T10:06:54;99968.38;;;15.33;79.68
76132;BME280;64877;50.994;13.650;2024-02-15T10:09:24;99965.25;;;15.37;79.75
76132;BME280;64877;50.994;13.650;2024-02-15T10:11:57;99960.34;;;15.41;80.74
76132;BME280;64877;50.994;13.650;2024-02-15T10:14:24;99961.22;;;15.41;79.54
76132;BME280;64877;50.994;13.650;2024-02-15T10:16:49;99951.22;;;15.42;79.54
76132;BME280;64877;50.994;13.650;2024-02-15T10:19:15;99966.22;;;15.46;79.32
76132;BME280;64877;50.994;13.650;2024-02-15T10:21:42;99961.22;;;15.41;80.16
76132;BME280;64877;50.994;13.650;2024-02-15T10:24:08;99958.66;;;15.49;80.03
76132;BME280;64877;50.994;13.650;2024-02-15T10:26:35;99956.34;;;15.45;79.80
76132;BME280;64877;50.994;13.650;2024-02-15T10:29:11;99956.34;;;15.45;79.54
76132;BME280;64877;50.994;13.650;2024-02-15T10:31:51;99957.63;;;15.41;79.69
76132;BME280;64877;50.994;13.650;2024-02-15T10:34:17;99954.91;;;15.41;79.74
76132;BME280;64877;50.994;13.650;2024-02-15T10:36:44;99964.66;;;15.34;80.19
76132;BME280;64877;50.994;13.650;2024-02-15T10:39:11;99961.50;;;15.29;80.93
76132;BME280;64877;50.994;13.650;2024-02-15T10:41:43;99958.78;;;15.19;81.18
76132;BME280;64877;50.994;13.650;2024-02-15T10:44:15;99954.16;;;15.10;81.58
76132;BME280;64877;50.994;13.650;2024-02-15T10:46:41;99952.91;;;15.14;82.29
76132;BME280;64877;50.994;13.650;2024-02-15T10:49:06;99951.19;;;15.13;82.68
76132;BME280;64877;50.994;13.650;2024-02-15T10:51:33;99953.47;;;15.17;82.71
76132;BME280;64877;50.994;13.650;2024-02-15T10:54:01;99951.44;;;15.10;83.81
76132;BME280;64877;50.994;13.650;2024-02-15T10:56:34;99950.00;;;15.06;85.08
76132;BME280;64877;50.994;13.650;2024-02-15T10:59:10;99952.84;;;14.85;88.02
76132;BME280;64877;50.994;13.650;2024-02-15T11:01:41;99949.41;;;14.83;88.92
76132;BME280;64877;50.994;13.650;2024-02-15T11:04:08;99944.53;;;14.86;90.88
76132;BME280;64877;50.994;13.650;2024-02-15T11:06:38;99943.53;;;14.78;91.56
76132;BME280;64877;50.994;13.650;2024-02-15T11:09:07;99941.09;;;14.84;91.07
76132;BME280;64877;50.994;13.650;2024-02-15T11:11:34;99941.78;;;14.77;91.66
76132;BME280;64877;50.994;13.650;2024-02-15T11:16:48;99932.81;;;15.05;90.32
76132;BME280;64877;50.994;13.650;2024-02-15T11:22:11;99937.16;;;15.08;87.88
76132;BME280;64877;50.994;13.650;2024-02-15T11:24:49;99929.97;;;14.97;86.79
76132;BME280;64877;50.994;13.650;2024-02-15T11:27:27;99939.72;;;15.09;86.96
76132;BME280;64877;50.994;13.650;2024-02-15T11:29:53;99942.69;;;15.06;86.58
76132;BME280;64877;50.994;13.650;2024-02-15T11:32:45;99940.16;;;15.14;85.70
76132;BME280;64877;50.994;13.650;2024-02-15T11:35:21;99927.69;;;15.21;86.11
76132;BME280;64877;50.994;13.650;2024-02-15T11:40:16;99917.13;;;15.38;85.53
76132;BME280;64877;50.994;13.650;2024-02-15T11:42:45;99919.09;;;15.45;84.80
76132;BME280;64877;50.994;13.650;2024-02-15T11:45:15;99911.09;;;15.54;84.39
76132;BME280;64877;50.994;13.650;2024-02-15T11:47:50;99919.97;;;15.75;83.37
76132;BME280;64877;50.994;13.650;2024-02-15T11:50:20;99910.25;;;15.72;82.47
76132;BME280;64877;50.994;13.650;2024-02-15T11:52:50;99911.19;;;15.81;82.46
76132;BME280;64877;50.994;13.650;2024-02-15T11:55:20;99912.78;;;15.84;81.76
76132;BME280;64877;50.994;13.650;2024-02-15T11:57:59;99911.91;;;15.93;80.60
76132;BME280;64877;50.994;13.650;2024-02-15T12:00:41;99907.03;;;15.96;80.20
76132;BME280;64877;50.994;13.650;2024-02-15T12:03:25;99911.31;;;15.99;79.05
76132;BME280;64877;50.994;13.650;2024-02-15T12:06:11;99904.03;;;15.90;79.99
76132;BME280;64877;50.994;13.650;2024-02-15T12:08:55;99904.44;;;15.95;79.83
76132;BME280;64877;50.994;13.650;2024-02-15T12:11:40;99903.03;;;15.81;80.11
76132;BME280;64877;50.994;13.650;2024-02-15T12:14:24;99904.47;;;15.75;80.80
76132;BME280;64877;50.994;13.650;2024-02-15T12:17:12;99897.91;;;15.68;81.44
76132;BME280;64877;50.994;13.650;2024-02-15T12:19:59;99897.31;;;15.74;81.43
76132;BME280;64877;50.994;13.650;2024-02-15T12:22:35;99897.22;;;15.66;81.70
76132;BME280;64877;50.994;13.650;2024-02-15T12:25:03;99896.59;;;15.63;81.45
76132;BME280;64877;50.994;13.650;2024-02-15T12:27:40;99896.47;;;15.64;80.64
76132;BME280;64877;50.994;13.650;2024-02-15T12:30:13;99894.78;;;15.63;80.63
76132;BME280;64877;50.994;13.650;2024-02-15T12:32:39;99892.28;;;15.80;80.35
76132;BME280;64877;50.994;13.650;2024-02-15T12:35:12;99889.88;;;15.76;80.77
76132;BME280;64877;50.994;13.650;2024-02-15T12:37:48;99879.84;;;15.77;80.54
76132;BME280;64877;50.994;13.650;2024-02-15T12:40:20;99880.69;;;15.87;80.15
76132;BME280;64877;50.994;13.650;2024-02-15T12:42:47;99881.94;;;15.93;79.44
76132;BME280;64877;50.994;13.650;2024-02-15T12:45:16;99870.59;;;15.97;78.81
76132;BME280;64877;50.994;13.650;2024-02-15T12:47:54;99879.22;;;15.93;79.57
76132;BME280;64877;50.994;13.650;2024-02-15T12:50:21;99878.38;;;15.92;79.35
76132;BME280;64877;50.994;13.650;2024-02-15T12:52:50;99878.91;;;15.96;78.78
76132;BME280;64877;50.994;13.650;2024-02-15T12:55:20;99888.97;;;15.86;78.98